createdAt,value
2023-02-11T00:00:08.373Z,0.93
2023-02-11T00:01:09.641Z,0.68
2023-02-11T00:02:10.828Z,0.63
2023-02-11T00:03:12.123Z,0.59
2023-02-11T00:04:13.798Z,0.66
2023-02-11T00:05:15.041Z,0.74
2023-02-11T00:06:16.058Z,0.37
2023-02-11T00:07:17.259Z,0.44
2023-02-11T00:08:18.461Z,0.43
2023-02-11T00:09:19.785Z,0.48
2023-02-11T00:10:21.110Z,0.34
2023-02-11T00:11:22.454Z,0.38
2023-02-11T00:12:23.533Z,0.57
2023-02-11T00:13:24.760Z,0.68
2023-02-11T00:14:26.389Z,0.65
2023-02-11T00:15:27.597Z,0.59
2023-02-11T00:16:29.064Z,0.49
2023-02-11T00:17:30.483Z,0.49
2023-02-11T00:18:31.913Z,0.57
2023-02-11T00:19:33.107Z,0.52
2023-02-11T00:20:34.241Z,0.65
2023-02-11T00:21:35.534Z,0.5
2023-02-11T00:22:36.706Z,0.5
2023-02-11T00:23:38.033Z,0.22
2023-02-11T00:24:39.354Z,0.35
2023-02-11T00:25:40.605Z,0.26
2023-02-11T00:26:41.564Z,0.41
2023-02-11T00:27:42.759Z,0.38
2023-02-11T00:28:43.739Z,0.33
2023-02-11T00:29:44.995Z,0.42
2023-02-11T00:30:46.391Z,0.24
2023-02-11T00:31:48.129Z,0.32
2023-02-11T00:32:50.041Z,0.35
2023-02-11T00:33:51.372Z,0.32
2023-02-11T00:34:52.917Z,0.19
2023-02-11T00:35:54.243Z,0.38
2023-02-11T00:36:55.371Z,0.42
2023-02-11T00:37:56.554Z,0.46
2023-02-11T00:38:57.758Z,0.43
2023-02-11T00:39:58.917Z,0.44
2023-02-11T00:41:00.166Z,0.29
2023-02-11T00:42:01.443Z,0.26
2023-02-11T00:43:02.515Z,0.32
2023-02-11T00:44:03.844Z,0.37
2023-02-11T00:45:05.056Z,0.25
2023-02-11T00:46:06.548Z,0.2
2023-02-11T00:47:08.063Z,0.37
2023-02-11T00:48:09.478Z,0.5
2023-02-11T00:49:10.557Z,0.45
2023-02-11T00:50:11.767Z,0.2
2023-02-11T00:51:12.963Z,0.4
2023-02-11T00:52:14.160Z,0.24
2023-02-11T00:53:15.415Z,0.01
2023-02-11T00:54:16.585Z,0.03
2023-02-11T00:55:17.768Z,0.14
2023-02-11T00:56:19.085Z,0.24
2023-02-11T00:57:20.207Z,0.22
2023-02-11T00:58:21.362Z,0.06
2023-02-11T00:59:22.443Z,0.16
2023-02-11T01:00:23.785Z,0.05
2023-02-11T01:01:25.116Z,-0.01
2023-02-11T01:02:26.730Z,-0.01
2023-02-11T01:03:28.108Z,0.05
2023-02-11T01:04:29.288Z,0.1
2023-02-11T01:05:30.536Z,-0.25
2023-02-11T01:06:32.070Z,-0.64
2023-02-11T01:07:33.371Z,-0.67
2023-02-11T01:08:34.598Z,-0.67
2023-02-11T01:09:35.894Z,-0.64
2023-02-11T01:10:37.221Z,-0.66
2023-02-11T01:11:38.538Z,-0.43
2023-02-11T01:12:39.736Z,-0.29
2023-02-11T01:13:40.937Z,-0.29
2023-02-11T01:14:42.257Z,-0.11
2023-02-11T01:15:43.493Z,0.02
2023-02-11T01:16:44.830Z,0.07
2023-02-11T01:17:45.818Z,-0.09
2023-02-11T01:18:47.107Z,0.19
2023-02-11T01:19:48.382Z,0.3
2023-02-11T01:20:49.586Z,0.31
2023-02-11T01:21:50.932Z,0.22
2023-02-11T01:22:52.103Z,0.08
2023-02-11T01:23:53.192Z,-0.18
2023-02-11T01:24:54.383Z,-0.47
2023-02-11T01:25:55.706Z,-0.44
2023-02-11T01:26:57.064Z,-0.44
2023-02-11T01:27:58.247Z,-0.25
2023-02-11T01:28:59.550Z,-0.1
2023-02-11T01:30:00.749Z,-0.56
2023-02-11T01:31:02.002Z,-1.04
2023-02-11T01:32:03.482Z,-0.92
2023-02-11T01:33:05.126Z,-0.96
2023-02-11T01:34:06.276Z,-0.71
2023-02-11T01:35:07.593Z,-0.36
2023-02-11T01:36:09.053Z,-0.17
2023-02-11T01:37:10.352Z,-0.2
2023-02-11T01:38:11.794Z,-0.32
2023-02-11T01:39:12.994Z,-0.55
2023-02-11T01:40:14.195Z,-0.63
2023-02-11T01:41:15.395Z,-0.49
2023-02-11T01:42:16.715Z,-0.26
2023-02-11T01:43:17.825Z,-0.44
2023-02-11T01:44:19.118Z,-0.43
2023-02-11T01:45:20.328Z,-0.22
2023-02-11T01:46:21.596Z,-0.24
2023-02-11T01:47:22.958Z,-0.16
2023-02-11T01:48:24.243Z,-0.39
2023-02-11T01:49:25.504Z,-0.29
2023-02-11T01:50:27.040Z,-0.48
2023-02-11T01:51:28.363Z,-0.49
2023-02-11T01:52:29.680Z,-0.42
2023-02-11T01:53:31.028Z,-0.64
2023-02-11T01:54:32.207Z,-0.9
2023-02-11T01:55:33.282Z,-0.91
2023-02-11T01:56:34.513Z,-0.79
2023-02-11T01:57:35.849Z,-0.78
2023-02-11T01:58:37.246Z,-0.96
2023-02-11T01:59:38.566Z,-0.93
2023-02-11T02:00:40.008Z,-0.99
2023-02-11T02:01:41.359Z,-0.86
2023-02-11T02:02:42.769Z,-0.84
2023-02-11T02:03:43.984Z,-0.87
2023-02-11T02:04:45.444Z,-0.95
2023-02-11T02:05:46.854Z,-0.75
2023-02-11T02:06:48.053Z,-0.78
2023-02-11T02:07:49.187Z,-0.86
2023-02-11T02:08:50.500Z,-0.76
2023-02-11T02:09:51.543Z,-0.64
2023-02-11T02:10:52.741Z,-0.65
2023-02-11T02:11:53.959Z,-0.75
2023-02-11T02:12:55.250Z,-0.86
2023-02-11T02:13:56.572Z,-0.76
2023-02-11T02:14:58.013Z,-0.72
2023-02-11T02:15:59.383Z,-0.97
2023-02-11T02:17:00.895Z,-1.16
2023-02-11T02:18:02.248Z,-1.35
2023-02-11T02:19:03.946Z,-1.32
2023-02-11T02:20:05.282Z,-1.33
2023-02-11T02:21:06.662Z,-1.41
2023-02-11T02:22:07.975Z,-1.4
2023-02-11T02:23:09.056Z,-1.52
2023-02-11T02:24:12.573Z,-1.25
2023-02-11T02:25:12.179Z,-1.24
2023-02-11T02:26:13.496Z,-1.23
2023-02-11T02:27:14.840Z,-1.12
2023-02-11T02:28:16.165Z,-1.1
2023-02-11T02:29:17.696Z,-1.17
2023-02-11T02:30:19.059Z,-1.11
2023-02-11T02:31:20.485Z,-0.93
2023-02-11T02:32:21.899Z,-0.92
2023-02-11T02:33:23.466Z,-0.87
2023-02-11T02:34:24.928Z,-0.93
2023-02-11T02:35:26.364Z,-0.89
2023-02-11T02:36:27.630Z,-0.92
2023-02-11T02:37:28.864Z,-1.01
2023-02-11T02:38:30.183Z,-1.14
2023-02-11T02:39:31.504Z,-1.19
2023-02-11T02:40:32.642Z,-1.4
2023-02-11T02:41:34.028Z,-1.33
2023-02-11T02:42:35.401Z,-1.29
2023-02-11T02:43:36.665Z,-1.37
2023-02-11T02:44:37.796Z,-1.22
2023-02-11T02:45:39.308Z,-1.2
2023-02-11T02:46:40.649Z,-1.4
2023-02-11T02:47:42.325Z,-1.43
2023-02-11T02:48:43.510Z,-1.11
2023-02-11T02:49:44.981Z,-0.87
2023-02-11T02:50:46.392Z,-0.89
2023-02-11T02:51:47.602Z,-0.7
2023-02-11T02:52:48.945Z,-0.7
2023-02-11T02:53:50.119Z,-0.66
2023-02-11T02:54:51.485Z,-0.61
2023-02-11T02:55:52.804Z,-0.59
2023-02-11T02:56:54.314Z,-0.55
2023-02-11T02:57:55.636Z,-0.66
2023-02-11T02:58:57.029Z,-0.77
2023-02-11T02:59:58.308Z,-0.7
2023-02-11T03:00:59.665Z,-0.58
2023-02-11T03:02:01.199Z,-0.57
2023-02-11T03:03:02.522Z,-0.55
2023-02-11T03:04:04.159Z,-0.58
2023-02-11T03:05:05.753Z,-0.56
2023-02-11T03:06:07.160Z,-0.58
2023-02-11T03:07:08.602Z,-0.59
2023-02-11T03:08:09.830Z,-0.82
2023-02-11T03:09:11.616Z,-0.68
2023-02-11T03:10:13.045Z,-0.58
2023-02-11T03:11:14.397Z,-0.52
2023-02-11T03:12:15.981Z,-0.47
2023-02-11T03:13:17.247Z,-0.53
2023-02-11T03:14:18.687Z,-0.7
2023-02-11T03:15:20.138Z,-0.44
2023-02-11T03:16:21.584Z,-0.32
2023-02-11T03:17:23.306Z,-0.44
2023-02-11T03:18:24.572Z,-0.48
2023-02-11T03:19:25.771Z,-0.44
2023-02-11T03:20:26.994Z,-0.35
2023-02-11T03:21:28.342Z,-0.36
2023-02-11T03:22:29.372Z,-0.36
2023-02-11T03:23:30.700Z,-0.56
2023-02-11T03:24:32.022Z,-0.62
2023-02-11T03:25:33.219Z,-0.65
2023-02-11T03:26:34.537Z,-0.68
2023-02-11T03:27:35.743Z,-0.74
2023-02-11T03:28:37.093Z,-0.83
2023-02-11T03:29:38.499Z,-0.66
2023-02-11T03:30:39.697Z,-0.47
2023-02-11T03:31:41.097Z,-0.47
2023-02-11T03:32:42.848Z,-0.38
2023-02-11T03:33:44.138Z,-0.68
2023-02-11T03:34:45.220Z,-0.82
2023-02-11T03:35:46.862Z,-0.99
2023-02-11T03:36:48.221Z,-1.32
2023-02-11T03:37:49.541Z,-1.32
2023-02-11T03:38:50.917Z,-1.34
2023-02-11T03:39:52.117Z,-1.61
2023-02-11T03:40:53.390Z,-1.45
2023-02-11T03:41:54.759Z,-1.17
2023-02-11T03:42:55.906Z,-1.15
2023-02-11T03:43:57.128Z,-1.33
2023-02-11T03:44:58.428Z,-1.23
2023-02-11T03:45:59.823Z,-0.98
2023-02-11T03:47:01.680Z,-0.85
2023-02-11T03:48:02.869Z,-0.93
2023-02-11T03:49:04.230Z,-0.88
2023-02-11T03:50:05.508Z,-0.86
2023-02-11T03:51:06.734Z,-0.72
2023-02-11T03:52:08.072Z,-0.7
2023-02-11T03:53:09.524Z,-0.81
2023-02-11T03:54:10.679Z,-0.57
2023-02-11T03:55:11.871Z,-0.47
2023-02-11T03:56:13.073Z,-0.56
2023-02-11T03:57:14.274Z,-0.55
2023-02-11T03:58:15.627Z,-0.4
2023-02-11T03:59:16.914Z,-0.26
2023-02-11T04:00:18.155Z,-0.33
2023-02-11T04:01:19.254Z,-0.5
2023-02-11T04:02:20.785Z,-0.46
2023-02-11T04:03:22.254Z,-0.3
2023-02-11T04:04:23.882Z,-0.63
2023-02-11T04:05:25.127Z,-0.73
2023-02-11T04:06:26.303Z,-0.56
2023-02-11T04:07:27.627Z,-0.72
2023-02-11T04:08:28.957Z,-0.59
2023-02-11T04:09:30.383Z,-0.39
2023-02-11T04:10:31.687Z,-0.35
2023-02-11T04:11:33.003Z,-0.37
2023-02-11T04:12:34.321Z,-0.4
2023-02-11T04:13:35.525Z,-0.36
2023-02-11T04:14:36.965Z,-0.39
2023-02-11T04:15:38.436Z,-0.41
2023-02-11T04:16:39.810Z,-0.32
2023-02-11T04:17:41.287Z,-0.46
2023-02-11T04:18:42.648Z,-0.58
2023-02-11T04:19:43.856Z,-0.52
2023-02-11T04:20:45.007Z,-0.7
2023-02-11T04:21:46.386Z,-0.85
2023-02-11T04:22:47.686Z,-1.03
2023-02-11T04:23:49.100Z,-1.04
2023-02-11T04:24:50.332Z,-1.35
2023-02-11T04:25:51.836Z,-1.32
2023-02-11T04:26:53.939Z,-1.13
2023-02-11T04:27:55.389Z,-1.25
2023-02-11T04:28:56.698Z,-1.29
2023-02-11T04:29:57.855Z,-1.3
2023-02-11T04:30:59.254Z,-1.33
2023-02-11T04:32:00.762Z,-1.31
2023-02-11T04:33:02.455Z,-1.18
2023-02-11T04:34:03.616Z,-0.98
2023-02-11T04:35:04.940Z,-0.8
2023-02-11T04:36:06.140Z,-0.74
2023-02-11T04:37:07.364Z,-1.02
2023-02-11T04:38:08.778Z,-0.89
2023-02-11T04:39:10.136Z,-0.78
2023-02-11T04:40:11.464Z,-0.88
2023-02-11T04:41:12.873Z,-0.74
2023-02-11T04:42:14.307Z,-0.57
2023-02-11T04:43:15.646Z,-0.42
2023-02-11T04:44:16.943Z,-0.56
2023-02-11T04:45:18.282Z,-0.66
2023-02-11T04:46:19.628Z,-0.6
2023-02-11T04:47:21.054Z,-0.49
2023-02-11T04:48:22.383Z,-0.4
2023-02-11T04:49:23.666Z,-0.54
2023-02-11T04:50:24.909Z,-0.51
2023-02-11T04:51:26.076Z,-0.62
2023-02-11T04:52:27.654Z,-0.54
2023-02-11T04:53:29.071Z,-0.97
2023-02-11T04:54:30.391Z,-1.26
2023-02-11T04:55:31.712Z,-1.15
2023-02-11T04:56:33.071Z,-1.1
2023-02-11T04:57:34.532Z,-0.99
2023-02-11T04:58:35.790Z,-0.8
2023-02-11T04:59:36.990Z,-1.03
2023-02-11T05:00:38.241Z,-1.15
2023-02-11T05:01:39.597Z,-1.24
2023-02-11T05:02:40.959Z,-1.08
2023-02-11T05:03:42.261Z,-0.73
2023-02-11T05:04:43.594Z,-0.76
2023-02-11T05:05:44.821Z,-0.99
2023-02-11T05:06:46.114Z,-0.78
2023-02-11T05:07:47.495Z,-0.92
2023-02-11T05:08:48.755Z,-1.04
2023-02-11T05:09:50.120Z,-1.11
2023-02-11T05:10:51.560Z,-1.14
2023-02-11T05:11:52.839Z,-0.99
2023-02-11T05:12:55.940Z,-0.84
2023-02-11T05:13:57.232Z,-0.75
2023-02-11T05:14:58.396Z,-0.71
2023-02-11T05:15:59.685Z,-0.76
2023-02-11T05:17:01.103Z,-0.58
2023-02-11T05:18:02.566Z,-0.46
2023-02-11T05:19:03.913Z,-0.74
2023-02-11T05:20:05.131Z,-0.63
2023-02-11T05:21:06.285Z,-0.8
2023-02-11T05:22:07.405Z,-0.77
2023-02-11T05:23:08.710Z,-0.67
2023-02-11T05:24:10.126Z,-0.67
2023-02-11T05:25:11.632Z,-0.75
2023-02-11T05:26:12.707Z,-0.71
2023-02-11T05:27:14.020Z,-0.43
2023-02-11T05:28:15.270Z,-0.53
2023-02-11T05:29:16.871Z,-0.54
2023-02-11T05:30:18.170Z,-0.68
2023-02-11T05:31:19.716Z,-0.92
2023-02-11T05:32:20.989Z,-0.97
2023-02-11T05:33:22.377Z,-1.06
2023-02-11T05:34:23.507Z,-0.92
2023-02-11T05:35:24.793Z,-0.7
2023-02-11T05:36:26.133Z,-0.73
2023-02-11T05:37:27.589Z,-0.75
2023-02-11T05:38:28.803Z,-0.57
2023-02-11T05:39:30.296Z,-0.72
2023-02-11T05:40:31.739Z,-0.76
2023-02-11T05:41:32.978Z,-0.87
2023-02-11T05:42:34.056Z,-0.78
2023-02-11T05:43:35.436Z,-0.51
2023-02-11T05:44:36.904Z,-0.54
2023-02-11T05:45:38.478Z,-0.85
2023-02-11T05:46:39.824Z,-0.91
2023-02-11T05:47:41.884Z,-0.89
2023-02-11T05:48:43.048Z,-0.91
2023-02-11T05:49:44.285Z,-1
2023-02-11T05:50:45.476Z,-0.66
2023-02-11T05:51:46.861Z,-0.58
2023-02-11T05:52:48.426Z,-0.77
2023-02-11T05:53:50.538Z,-0.66
2023-02-11T05:54:51.663Z,-0.55
2023-02-11T05:55:53.231Z,-0.68
2023-02-11T05:56:54.669Z,-0.8
2023-02-11T05:57:56.014Z,-0.87
2023-02-11T05:58:57.307Z,-0.92
2023-02-11T05:59:58.667Z,-0.9
2023-02-11T06:01:00.118Z,-0.59
2023-02-11T06:02:01.323Z,-0.72
2023-02-11T06:03:02.589Z,-0.7
2023-02-11T06:04:03.830Z,-0.71
2023-02-11T06:05:05.471Z,-0.69
2023-02-11T06:06:06.819Z,-0.73
2023-02-11T06:07:08.233Z,-0.75
2023-02-11T06:08:09.559Z,-0.59
2023-02-11T06:09:10.778Z,-0.52
2023-02-11T06:10:12.075Z,-0.67
2023-02-11T06:11:13.392Z,-0.68
2023-02-11T06:12:14.591Z,-0.73
2023-02-11T06:13:15.794Z,-0.3
2023-02-11T06:14:16.995Z,-0.23
2023-02-11T06:15:18.433Z,-0.13
2023-02-11T06:16:19.686Z,-0.39
2023-02-11T06:17:21.322Z,-0.55
2023-02-11T06:18:22.454Z,-0.43
2023-02-11T06:19:23.721Z,-0.37
2023-02-11T06:20:25.148Z,-0.39
2023-02-11T06:21:39.982Z,-0.42
2023-02-11T06:22:26.534Z,-0.4
2023-02-11T06:23:30.311Z,-0.65
2023-02-11T06:24:51.257Z,-0.55
2023-02-11T06:25:31.576Z,-0.43
2023-02-11T06:26:32.650Z,-0.42
2023-02-11T06:27:33.945Z,-0.42
2023-02-11T06:28:35.258Z,-0.5
2023-02-11T06:29:37.121Z,-0.36
2023-02-11T06:30:38.514Z,-0.4
2023-02-11T06:31:40.094Z,-0.43
2023-02-11T06:32:45.038Z,-0.64
2023-02-11T06:33:44.604Z,-0.46
2023-02-11T06:34:45.928Z,-0.5
2023-02-11T06:35:47.008Z,-0.39
2023-02-11T06:36:48.504Z,-0.36
2023-02-11T06:37:49.769Z,-0.38
2023-02-11T06:38:50.977Z,-0.39
2023-02-11T06:39:52.434Z,-0.53
2023-02-11T06:40:53.731Z,-0.56
2023-02-11T06:41:55.245Z,-0.6
2023-02-11T06:42:56.611Z,-0.51
2023-02-11T06:43:58.057Z,-0.5
2023-02-11T06:44:59.375Z,-0.46
2023-02-11T06:46:00.695Z,-0.39
2023-02-11T06:47:01.894Z,-0.42
2023-02-11T06:48:03.214Z,-0.41
2023-02-11T06:49:04.657Z,-0.44
2023-02-11T06:50:06.103Z,-0.41
2023-02-11T06:51:07.536Z,-0.5
2023-02-11T06:52:08.978Z,-0.49
2023-02-11T06:53:11.380Z,-0.54
2023-02-11T06:54:12.707Z,-0.64
2023-02-11T06:55:13.980Z,-0.57
2023-02-11T06:56:15.230Z,-0.57
2023-02-11T06:57:16.464Z,-0.41
2023-02-11T06:58:18.107Z,-0.2
2023-02-11T06:59:19.453Z,-0.04
2023-02-11T07:00:20.860Z,-0.16
2023-02-11T07:01:22.488Z,-0.22
2023-02-11T07:02:24.224Z,-0.21
2023-02-11T07:03:25.934Z,-0.13
2023-02-11T07:04:27.225Z,-0.02
2023-02-11T07:05:28.363Z,0.07
2023-02-11T07:06:29.507Z,0.17
2023-02-11T07:07:33.029Z,0.05
2023-02-11T07:08:32.507Z,-0.01
2023-02-11T07:09:33.831Z,-0.11
2023-02-11T07:10:35.204Z,-0.03
2023-02-11T07:11:36.406Z,-0.01
2023-02-11T07:12:37.794Z,0.22
2023-02-11T07:13:38.989Z,0.09
2023-02-11T07:14:40.357Z,-0.05
2023-02-11T07:15:41.514Z,-0.12
2023-02-11T07:16:42.771Z,-0.08
2023-02-11T07:17:44.035Z,0.07
2023-02-11T07:18:45.473Z,-0.12
2023-02-11T07:19:46.372Z,-0.14
2023-02-11T07:20:47.756Z,-0.15
2023-02-11T07:21:48.956Z,-0.15
2023-02-11T07:22:50.207Z,-0.13
2023-02-11T07:23:51.623Z,-0.06
2023-02-11T07:24:53.037Z,-0.06
2023-02-11T07:25:54.502Z,-0.2
2023-02-11T07:26:55.838Z,-0.16
2023-02-11T07:27:57.182Z,0.07
2023-02-11T07:28:58.562Z,0.16
2023-02-11T07:30:00.000Z,0.07
2023-02-11T07:31:01.767Z,0.01
2023-02-11T07:32:03.652Z,-0.07
2023-02-11T07:33:05.040Z,-0.03
2023-02-11T07:34:06.281Z,0.01
2023-02-11T07:35:07.509Z,0.27
2023-02-11T07:36:08.706Z,0.5
2023-02-11T07:37:09.852Z,0.64
2023-02-11T07:38:11.078Z,0.55
2023-02-11T07:39:12.305Z,0.61
2023-02-11T07:40:13.572Z,1.01
2023-02-11T07:41:15.033Z,1.26
2023-02-11T07:42:16.452Z,1.41
2023-02-11T07:43:17.774Z,1.24
2023-02-11T07:44:18.847Z,1.43
2023-02-11T07:45:19.929Z,1.18
2023-02-11T07:46:21.528Z,0.99
2023-02-11T07:47:22.930Z,0.87
2023-02-11T07:48:24.138Z,1.11
2023-02-11T07:49:25.391Z,1.32
2023-02-11T07:50:26.779Z,1.25
2023-02-11T07:51:28.029Z,1.19
2023-02-11T07:52:29.214Z,1.14
2023-02-11T07:53:30.540Z,1.14
2023-02-11T07:54:32.177Z,1.36
2023-02-11T07:55:33.502Z,1.41
2023-02-11T07:56:34.871Z,1.6
2023-02-11T07:57:35.825Z,1.6
2023-02-11T07:58:37.097Z,1.56
2023-02-11T07:59:38.222Z,1.61
2023-02-11T08:00:39.545Z,1.09
2023-02-11T08:01:40.815Z,1.17
2023-02-11T08:02:42.148Z,1.28
2023-02-11T08:03:43.411Z,1.11
2023-02-11T08:04:44.421Z,0.98
2023-02-11T08:05:45.621Z,1
2023-02-11T08:06:46.945Z,1.24
2023-02-11T08:07:48.140Z,1.41
2023-02-11T08:08:49.466Z,1.4
2023-02-11T08:09:50.798Z,1.37
2023-02-11T08:10:52.451Z,1.07
2023-02-11T08:11:53.984Z,0.92
2023-02-11T08:12:55.224Z,0.79
2023-02-11T08:13:56.781Z,1.11
2023-02-11T08:14:58.138Z,1.31
2023-02-11T08:15:59.508Z,1.28
2023-02-11T08:17:00.874Z,1.25
2023-02-11T08:18:02.328Z,1.16
2023-02-11T08:19:03.793Z,1.1
2023-02-11T08:20:05.086Z,1.25
2023-02-11T08:21:06.150Z,1.13
2023-02-11T08:22:07.496Z,1.46
2023-02-11T08:23:08.666Z,1.83
2023-02-11T08:24:09.801Z,2.29
2023-02-11T08:25:11.068Z,2.38
2023-02-11T08:26:12.410Z,1.87
2023-02-11T08:27:13.869Z,1.8
2023-02-11T08:28:15.036Z,1.61
2023-02-11T08:29:16.830Z,1.63
2023-02-11T08:30:18.271Z,1.83
2023-02-11T08:31:19.802Z,1.55
2023-02-11T08:32:21.683Z,1.9
2023-02-11T08:33:23.436Z,1.85
2023-02-11T08:34:24.634Z,1.8
2023-02-11T08:35:25.834Z,1.9
2023-02-11T08:36:27.275Z,1.73
2023-02-11T08:37:30.318Z,1.61
2023-02-11T08:38:30.914Z,1.42
2023-02-11T08:39:32.200Z,1.47
2023-02-11T08:40:33.322Z,1.43
2023-02-11T08:41:34.595Z,1.47
2023-02-11T08:42:35.851Z,1.52
2023-02-11T08:43:36.998Z,1.36
2023-02-11T08:44:38.076Z,1.3
2023-02-11T08:45:39.373Z,1.35
2023-02-11T08:46:41.003Z,1.45
2023-02-11T08:47:42.038Z,1.42
2023-02-11T08:48:43.371Z,1.45
2023-02-11T08:49:44.834Z,1.47
2023-02-11T08:50:46.001Z,1.62
2023-02-11T08:51:47.445Z,1.67
2023-02-11T08:52:48.785Z,1.98
2023-02-11T08:53:49.993Z,2.16
2023-02-11T08:54:51.405Z,2.15
2023-02-11T08:55:52.591Z,2.34
2023-02-11T08:56:54.295Z,2.31
2023-02-11T08:57:55.674Z,2.34
2023-02-11T08:58:56.807Z,2.41
2023-02-11T08:59:58.007Z,2.49
2023-02-11T09:00:59.749Z,2.43
2023-02-11T09:02:01.387Z,2.5
2023-02-11T09:03:02.616Z,2.73
2023-02-11T09:04:04.010Z,2.75
2023-02-11T09:05:05.581Z,2.78
2023-02-11T09:06:06.771Z,2.88
2023-02-11T09:07:07.974Z,2.91
2023-02-11T09:08:09.298Z,2.77
2023-02-11T09:09:10.493Z,2.8
2023-02-11T09:10:11.623Z,2.93
2023-02-11T09:11:13.016Z,3
2023-02-11T09:12:14.393Z,2.72
2023-02-11T09:13:15.558Z,2.96
2023-02-11T09:14:16.891Z,2.82
2023-02-11T09:15:18.065Z,2.79
2023-02-11T09:16:19.396Z,2.69
2023-02-11T09:17:20.939Z,3.03
2023-02-11T09:18:22.267Z,2.96
2023-02-11T09:19:23.461Z,3
2023-02-11T09:20:24.902Z,2.97
2023-02-11T09:21:26.109Z,3.27
2023-02-11T09:22:27.542Z,3.43
2023-02-11T09:23:28.622Z,3.59
2023-02-11T09:24:29.825Z,3.14
2023-02-11T09:25:31.021Z,3.05
2023-02-11T09:26:32.358Z,3.02
2023-02-11T09:27:33.805Z,2.93
2023-02-11T09:28:35.230Z,3.19
2023-02-11T09:29:37.035Z,3.27
2023-02-11T09:30:38.302Z,3.2
2023-02-11T09:31:40.117Z,3.19
2023-02-11T09:32:41.829Z,3.29
2023-02-11T09:33:42.908Z,3.33
2023-02-11T09:34:44.229Z,3.47
2023-02-11T09:35:45.435Z,3.2
2023-02-11T09:36:46.440Z,3.23
2023-02-11T09:37:47.850Z,3.37
2023-02-11T09:38:49.033Z,3.34
2023-02-11T09:39:50.409Z,3.32
2023-02-11T09:40:51.854Z,3.07
2023-02-11T09:41:53.759Z,3.2
2023-02-11T09:42:56.753Z,3.27
2023-02-11T09:43:55.602Z,3.44
2023-02-11T09:44:56.835Z,3.37
2023-02-11T09:45:58.145Z,3.38
2023-02-11T09:46:59.600Z,3.44
2023-02-11T09:48:00.966Z,3.56
2023-02-11T09:49:04.157Z,3.88
2023-02-11T09:50:05.381Z,3.8
2023-02-11T09:51:06.799Z,4
2023-02-11T09:52:08.124Z,4.1
2023-02-11T09:53:09.261Z,3.9
2023-02-11T09:54:10.533Z,3.88
2023-02-11T09:55:11.978Z,3.78
2023-02-11T09:56:13.415Z,3.91
2023-02-11T09:57:27.834Z,4
2023-02-11T09:58:17.619Z,4.02
2023-02-11T09:59:18.882Z,4.15
2023-02-11T10:00:20.036Z,4.37
2023-02-11T10:01:21.475Z,4.21
2023-02-11T10:02:23.128Z,4.13
2023-02-11T10:03:24.447Z,4.45
2023-02-11T10:04:25.434Z,4.41
2023-02-11T10:05:27.093Z,4.3
2023-02-11T10:06:28.419Z,4.2
2023-02-11T10:07:29.665Z,4.09
2023-02-11T10:08:30.811Z,4.21
2023-02-11T10:09:32.253Z,4.43
2023-02-11T10:10:33.731Z,4.53
2023-02-11T10:11:35.020Z,4.41
2023-02-11T10:12:36.221Z,4.63
2023-02-11T10:13:37.353Z,4.76
2023-02-11T10:14:38.543Z,4.68
2023-02-11T10:15:39.614Z,4.61
2023-02-11T10:16:40.776Z,4.54
2023-02-11T10:17:41.978Z,4.59
2023-02-11T10:18:43.443Z,4.61
2023-02-11T10:19:45.108Z,4.66
2023-02-11T10:20:46.548Z,4.94
2023-02-11T10:21:47.754Z,5.14
2023-02-11T10:22:48.996Z,5.28
2023-02-11T10:23:50.144Z,5.27
2023-02-11T10:24:51.604Z,5.15
2023-02-11T10:25:52.925Z,5.18
2023-02-11T10:26:54.109Z,5.15
2023-02-11T10:27:55.188Z,5.32
2023-02-11T10:28:56.267Z,5.47
2023-02-11T10:29:57.516Z,5.2
2023-02-11T10:30:58.977Z,5.45
2023-02-11T10:32:01.128Z,5.56
2023-02-11T10:33:02.628Z,5.59
2023-02-11T10:34:03.884Z,5.39
2023-02-11T10:35:05.081Z,5.4
2023-02-11T10:36:06.226Z,5.36
2023-02-11T10:37:07.430Z,5.56
2023-02-11T10:38:08.882Z,5.48
2023-02-11T10:39:10.320Z,5.55
2023-02-11T10:40:11.755Z,5.67
2023-02-11T10:41:13.071Z,5.76
2023-02-11T10:42:14.282Z,5.5
2023-02-11T10:43:15.478Z,5.56
2023-02-11T10:44:16.916Z,5.44
2023-02-11T10:45:18.269Z,5.32
2023-02-11T10:46:19.497Z,5.52
2023-02-11T10:47:20.935Z,5.5
2023-02-11T10:48:22.077Z,5.65
2023-02-11T10:49:23.326Z,5.64
2023-02-11T10:50:24.485Z,5.51
2023-02-11T10:51:25.730Z,5.59
2023-02-11T10:52:26.926Z,5.81
2023-02-11T10:53:28.356Z,5.77
2023-02-11T10:54:29.920Z,5.8
2023-02-11T10:55:31.135Z,5.88
2023-02-11T10:56:32.450Z,5.95
2023-02-11T10:57:33.536Z,6.09
2023-02-11T10:58:34.938Z,6.28
2023-02-11T10:59:36.276Z,6.14
2023-02-11T11:00:37.724Z,6.04
2023-02-11T11:01:39.025Z,6.29
2023-02-11T11:02:40.578Z,6.24
2023-02-11T11:03:41.769Z,6.27
2023-02-11T11:04:42.925Z,6.29
2023-02-11T11:05:44.287Z,6.25
2023-02-11T11:06:45.728Z,6.08
2023-02-11T11:07:47.049Z,6.18
2023-02-11T11:08:48.250Z,6.21
2023-02-11T11:09:49.693Z,6.16
2023-02-11T11:10:51.234Z,6.21
2023-02-11T11:11:53.536Z,6.26
2023-02-11T11:12:54.876Z,6.5
2023-02-11T11:13:56.181Z,6.39
2023-02-11T11:14:57.615Z,6.5
2023-02-11T11:15:58.871Z,6.37
2023-02-11T11:17:00.257Z,6.52
2023-02-11T11:18:15.434Z,6.71
2023-02-11T11:19:02.294Z,7.01
2023-02-11T11:20:03.736Z,7.07
2023-02-11T11:21:04.940Z,6.76
2023-02-11T11:22:06.136Z,7.1
2023-02-11T11:23:07.339Z,7.25
2023-02-11T11:24:08.670Z,7.5
2023-02-11T11:25:09.978Z,8.15
2023-02-11T11:26:11.183Z,7.77
2023-02-11T11:27:12.380Z,7.78
2023-02-11T11:28:13.446Z,8.21
2023-02-11T11:29:14.951Z,8.05
2023-02-11T11:30:16.167Z,8.06
2023-02-11T11:31:17.923Z,7.81
2023-02-11T11:32:20.563Z,7.88
2023-02-11T11:33:22.105Z,8.49
2023-02-11T11:34:23.187Z,9.2
2023-02-11T11:35:24.517Z,9.23
2023-02-11T11:36:25.951Z,9.03
2023-02-11T11:37:27.411Z,8.75
2023-02-11T11:38:28.823Z,9.89
2023-02-11T11:39:30.167Z,9.55
2023-02-11T11:40:31.506Z,9.81
2023-02-11T11:41:32.557Z,9.46
2023-02-11T11:42:33.762Z,9.98
2023-02-11T11:43:34.945Z,10.02
2023-02-11T11:44:36.184Z,10.86
2023-02-11T11:45:37.343Z,11.7
2023-02-11T11:46:38.756Z,12.38
2023-02-11T11:47:40.513Z,11.86
2023-02-11T11:48:41.826Z,10.32
2023-02-11T11:49:43.035Z,9.87
2023-02-11T11:50:44.190Z,10.04
2023-02-11T11:51:45.512Z,9.86
2023-02-11T11:52:46.950Z,9.97
2023-02-11T11:53:48.073Z,10.1
2023-02-11T11:54:49.256Z,10.87
2023-02-11T11:55:50.583Z,11.09
2023-02-11T11:56:51.879Z,11.52
2023-02-11T11:57:53.092Z,11.53
2023-02-11T11:58:54.394Z,11.81
2023-02-11T11:59:55.840Z,11.5
2023-02-11T12:00:57.276Z,11.24
2023-02-11T12:01:58.639Z,11.59
2023-02-11T12:03:00.070Z,11.45
2023-02-11T12:04:01.513Z,11.23
2023-02-11T12:05:02.799Z,11.39
2023-02-11T12:06:04.157Z,12.56
2023-02-11T12:07:05.318Z,13.48
2023-02-11T12:08:06.637Z,14.47
2023-02-11T12:09:08.108Z,14.03
2023-02-11T12:10:09.397Z,13.63
2023-02-11T12:11:10.619Z,12.78
2023-02-11T12:12:12.088Z,12.85
2023-02-11T12:13:13.524Z,13.75
2023-02-11T12:14:14.801Z,13.71
2023-02-11T12:15:16.002Z,13.36
2023-02-11T12:16:17.390Z,12.01
2023-02-11T12:17:18.909Z,12.16
2023-02-11T12:18:20.212Z,13.19
2023-02-11T12:19:21.527Z,11.93
2023-02-11T12:20:22.844Z,12.16
2023-02-11T12:21:24.284Z,12.41
2023-02-11T12:22:25.412Z,13.48
2023-02-11T12:23:26.564Z,12.96
2023-02-11T12:24:27.574Z,12.86
2023-02-11T12:25:28.894Z,12.89
2023-02-11T12:26:30.200Z,12.01
2023-02-11T12:27:31.606Z,11.64
2023-02-11T12:28:32.786Z,11.67
2023-02-11T12:29:34.009Z,11.89
2023-02-11T12:30:35.217Z,11.81
2023-02-11T12:31:36.639Z,11.81
2023-02-11T12:32:38.356Z,12.14
2023-02-11T12:33:39.651Z,11.61
2023-02-11T12:34:40.993Z,11.62
2023-02-11T12:35:42.317Z,11.47
2023-02-11T12:36:43.551Z,11.65
2023-02-11T12:37:44.815Z,12.1
2023-02-11T12:38:46.019Z,12.71
2023-02-11T12:39:47.458Z,12.57
2023-02-11T12:40:48.952Z,11.75
2023-02-11T12:41:51.537Z,11.75
2023-02-11T12:42:52.742Z,12.21
2023-02-11T12:43:54.059Z,12.58
2023-02-11T12:44:55.741Z,11.66
2023-02-11T12:45:57.070Z,11.11
2023-02-11T12:46:58.382Z,10.78
2023-02-11T12:47:59.606Z,10.84
2023-02-11T12:49:00.780Z,11.06
2023-02-11T12:50:01.981Z,11.23
2023-02-11T12:51:03.233Z,11.09
2023-02-11T12:52:04.684Z,10.4
2023-02-11T12:53:05.943Z,10.08
2023-02-11T12:54:07.147Z,10.55
2023-02-11T12:55:08.606Z,10.48
2023-02-11T12:56:09.913Z,10.8
2023-02-11T12:57:11.280Z,10.93
2023-02-11T12:58:12.562Z,10.96
2023-02-11T12:59:14.460Z,11.09
2023-02-11T13:00:15.957Z,11.47
2023-02-11T13:01:17.249Z,11.14
2023-02-11T13:02:18.902Z,10.65
2023-02-11T13:03:20.360Z,10.74
2023-02-11T13:04:21.558Z,10.54
2023-02-11T13:05:22.872Z,10.37
2023-02-11T13:06:24.073Z,10.25
2023-02-11T13:07:25.092Z,10.39
2023-02-11T13:08:26.496Z,10.42
2023-02-11T13:09:27.805Z,10.18
2023-02-11T13:10:29.052Z,10.27
2023-02-11T13:11:30.323Z,10.46
2023-02-11T13:12:31.641Z,10.54
2023-02-11T13:13:32.965Z,9.67
2023-02-11T13:14:34.281Z,9.49
2023-02-11T13:15:35.614Z,9.99
2023-02-11T13:16:37.018Z,10.62
2023-02-11T13:17:38.526Z,10.84
2023-02-11T13:18:39.709Z,11.08
2023-02-11T13:19:41.008Z,10.89
2023-02-11T13:20:42.362Z,11.07
2023-02-11T13:21:43.702Z,11.46
2023-02-11T13:22:44.984Z,11.05
2023-02-11T13:23:46.288Z,11.14